This is the latest recevied weather packets stored in our database for station/object KO6TH-15. If no packets are shown the sender has not sent any weather packets the latest 1 day(s).
| Time | Temp. | Humidity | Pressure | Rain* | Wind** | Luminosity | Snow |
|---|---|---|---|---|---|---|---|
| 1778021630 | 15.56° C | 81% | 0 hPa | 0 mm | 0.45 m/s, 0° | - | - |
| 1778021030 | 15.56° C | 80% | 0 hPa | 0 mm | 0.89 m/s, 0° | - | - |
| 1778020400 | 16.11° C | 79% | 0 hPa | 0 mm | 2.24 m/s, 0° | - | - |
| 1778019800 | 16.11° C | 79% | 0 hPa | 0 mm | 0.45 m/s, 0° | - | - |
| 1778019200 | 16.11° C | 80% | 0 hPa | 0 mm | 0.89 m/s, 0° | - | - |
| 1778018570 | 15.56° C | 81% | 0 hPa | 0 mm | 1.34 m/s, 0° | - | - |
| 1778017970 | 15.56° C | 81% | 0 hPa | 0 mm | 1.34 m/s, 0° | - | - |
| 1778017370 | 15.56° C | 82% | 0 hPa | 0 mm | 1.34 m/s, 0° | - | - |
| 1778016740 | 15.56° C | 83% | 0 hPa | 0 mm | 0.45 m/s, 0° | - | - |
| 1778016140 | 15.56° C | 81% | 0 hPa | 0 mm | 1.34 m/s, 0° | - | - |
| 1778015510 | 15.56° C | 81% | 0 hPa | 0 mm | 0 m/s | - | - |
| 1778014910 | 15.56° C | 81% | 0 hPa | 0 mm | 0.45 m/s, 0° | - | - |
| 1778014280 | 15.56° C | 80% | 0 hPa | 0 mm | 0 m/s | - | - |
| 1778013650 | 15.56° C | 82% | 0 hPa | 0 mm | 0 m/s | - | - |
| 1778013050 | 15° C | 83% | 0 hPa | 0 mm | 0 m/s | - | - |
| 1778012420 | 14.44° C | 84% | 0 hPa | 0 mm | 0 m/s | - | - |
| 1778011790 | 14.44° C | 84% | 0 hPa | 0 mm | 0 m/s | - | - |
| 1778011190 | 14.44° C | 85% | 0 hPa | 0 mm | 0.45 m/s, 0° | - | - |
| 1778010590 | 15° C | 82% | 0 hPa | 0 mm | 0 m/s | - | - |
| 1778010001 | 15° C | 83% | 0 hPa | 0 mm | 0.45 m/s, 0° | - | - |
| 1778009360 | 16.11° C | 80% | 0 hPa | 0 mm | 1.34 m/s, 0° | - | - |
| 1778008760 | 16.67° C | 77% | 0 hPa | 0 mm | 0.45 m/s, 0° | - | - |
| 1778008130 | 16.67° C | 76% | 0 hPa | 0 mm | 0.89 m/s, 0° | - | - |
| 1778007530 | 16.11° C | 79% | 0 hPa | 0 mm | 1.34 m/s, 0° | - | - |
| 1778006900 | 15.56° C | 82% | 0 hPa | 0 mm | 1.34 m/s, 0° | - | - |
* Rain latest hour (hover to see other rain measurements)
** Current wind speed in m/s (hover to see current wind gust speed)